Melvindale, MI (48122)

9:25 AM EST on January 30, 2015 (GMT -0500)
Dearborn Headquarters | Change Station
CLOSE
Current Station
Personal Weather Station
Location: Dearborn, Mi
Elevation: 597 ft
Nearby Weather Stations

Elev 597 ft 42.31 °N, 83.20 °W | Updated 7 seconds ago

Mostly Cloudy
Mostly Cloudy
15.8 °F
Feels Like 16 °F
N
0.0
Wind Variable Wind from NW
Gusts 2.2 mph

Today
High -- | Low -- °F
--% Chance of Precip.
Yesterday
High -- | Low -- °F
Precip. -- in
7:48 AM 5:44 PM
Waxing Gibbous, 83% visible
Pressure 30.38 in
Visibility 10.0 miles
Clouds Scattered Clouds 2500 ft
Mostly Cloudy 4000 ft
Overcast 12000 ft
Windchill 16 °F
Dew Point -15 °F
Humidity 22%
Rainfall 0.00 in
Snow Depth Not available.
UV 0 out of 12
Pollen .10 out of 12
Air Quality Not available.
Flu Activity Not available.
METAR KDTW 301353Z 32008KT 10SM SCT025 BKN040 OVC120 M07/M10 A3038 RMK SLPNO T10721100

More Conditions Fewer Conditions

Pressure 30.38 in
Visibility 10.0 miles
Clouds Scattered Clouds 2500 ft
Mostly Cloudy 4000 ft
Overcast 12000 ft
Windchill 16 °F
Dew Point -15 °F
Humidity 22%
Rainfall 0.00 in
Snow Depth Not available.
UV 0 out of 12
Pollen .10 out of 12
Air Quality Not available.
Flu Activity Not available.
METAR KDTW 301353Z 32008KT 10SM SCT025 BKN040 OVC120 M07/M10 A3038 RMK SLPNO T10721100

More Conditions Fewer Conditions

10-Day Weather Forecast

Almanac

Astronomy

Jan. 30, 2015 Rise Set
Actual Time
Civil Twilight
Nautical Twilight
Astronomical Twilight
Moon
Length of Visible Light
Length of Day
Tomorrow will be .
, % of the Moon is Illuminated

Today's Extremes

State Highs State Lows

Community

WunderPhotos

Upload Photos

1,791,762 photos uploaded!

WunderBlogs® & News

Nearby

Air Quality

  Air Quality AQ Index Pollutant
Not available.

Snow Depth

Station Depth Elevation

Earthquake Activity

City Distance Mag. Time & Date
Minimum magnitude displayed is 2.5.

Coastal Water Temperatures

Place Temperature

Nearby Weather Stations